createdAt,value
2018-10-16T00:01:29.029Z,16.70
2018-10-16T00:03:56.477Z,19.33
2018-10-16T00:06:23.833Z,18.33
2018-10-16T00:08:51.262Z,18.10
2018-10-16T00:11:18.674Z,18.17
2018-10-16T00:13:46.274Z,17.30
2018-10-16T00:16:13.626Z,18.00
2018-10-16T00:18:41.024Z,17.60
2018-10-16T00:21:08.579Z,18.00
2018-10-16T00:23:36.178Z,17.27
2018-10-16T00:26:03.598Z,18.43
2018-10-16T00:28:31.061Z,16.73
2018-10-16T00:30:58.498Z,19.10
2018-10-16T00:33:26.128Z,19.80
2018-10-16T00:35:53.626Z,17.80
2018-10-16T00:38:21.010Z,20.97
2018-10-16T00:40:48.399Z,17.97
2018-10-16T00:43:15.997Z,18.87
2018-10-16T00:45:43.387Z,19.77
2018-10-16T00:48:10.813Z,19.13
2018-10-16T00:50:38.216Z,20.03
2018-10-16T00:53:05.678Z,18.63
2018-10-16T00:55:33.149Z,18.77
2018-10-16T00:58:00.593Z,19.53
2018-10-16T01:00:28.087Z,18.73
2018-10-16T01:02:55.629Z,18.70
2018-10-16T01:05:23.053Z,17.10
2018-10-16T01:07:50.466Z,19.13
2018-10-16T01:10:17.942Z,18.70
2018-10-16T01:12:45.413Z,18.13
2018-10-16T01:15:13.033Z,18.30
2018-10-16T01:17:40.717Z,18.60
2018-10-16T01:20:10.866Z,19.23
2018-10-16T01:22:38.355Z,21.57
2018-10-16T01:25:06.690Z,21.40
2018-10-16T01:27:34.196Z,18.60
2018-10-16T01:30:01.917Z,17.77
2018-10-16T01:32:29.411Z,19.63
2018-10-16T01:34:56.941Z,22.20
2018-10-16T01:37:24.382Z,19.70
2018-10-16T01:39:51.803Z,22.73
2018-10-16T01:42:19.474Z,19.37
2018-10-16T01:44:46.993Z,22.40
2018-10-16T01:47:14.357Z,19.70
2018-10-16T01:49:41.725Z,22.60
2018-10-16T01:52:09.270Z,24.00
2018-10-16T01:54:36.861Z,21.53
2018-10-16T01:57:04.604Z,25.20
2018-10-16T01:59:32.062Z,20.90
2018-10-16T02:01:59.621Z,23.17
2018-10-16T02:04:27.128Z,20.97
2018-10-16T02:06:54.518Z,24.83
2018-10-16T02:09:22.246Z,20.43
2018-10-16T02:11:49.784Z,18.43
2018-10-16T02:14:17.162Z,23.07
2018-10-16T02:16:44.640Z,21.87
2018-10-16T02:19:12.039Z,20.87
2018-10-16T02:21:39.445Z,20.30
2018-10-16T02:24:07.338Z,23.53
2018-10-16T02:26:34.746Z,23.10
2018-10-16T02:29:02.190Z,23.00
2018-10-16T02:31:29.794Z,23.40
2018-10-16T02:37:01.131Z,25.23
2018-10-16T02:39:28.636Z,25.27
2018-10-16T02:41:56.047Z,22.93
2018-10-16T02:44:23.797Z,23.13
2018-10-16T02:46:51.329Z,22.63
2018-10-16T02:49:18.768Z,24.47
2018-10-16T02:51:46.244Z,23.23
2018-10-16T02:54:13.815Z,24.53
2018-10-16T02:56:41.413Z,25.60
2018-10-16T02:59:08.872Z,25.67
2018-10-16T03:01:36.291Z,25.40
2018-10-16T03:04:04.143Z,23.90
2018-10-16T03:06:31.842Z,22.83
2018-10-16T03:08:59.451Z,22.40
2018-10-16T03:11:27.047Z,23.13
2018-10-16T03:13:54.548Z,24.53
2018-10-16T03:16:22.033Z,24.40
2018-10-16T03:18:49.497Z,24.10
2018-10-16T03:21:16.989Z,25.37
2018-10-16T03:23:44.660Z,24.07
2018-10-16T03:26:12.532Z,25.77
2018-10-16T03:28:40.120Z,25.50
2018-10-16T03:31:07.717Z,22.97
2018-10-16T03:33:35.278Z,24.97
2018-10-16T03:36:02.873Z,23.87
2018-10-16T03:38:30.550Z,25.10
2018-10-16T03:40:58.329Z,25.20
2018-10-16T03:43:25.797Z,24.53
2018-10-16T03:45:53.401Z,20.33
2018-10-16T03:48:21.008Z,24.37
2018-10-16T03:50:48.670Z,24.43
2018-10-16T03:53:16.123Z,24.13
2018-10-16T03:55:43.678Z,25.37
2018-10-16T03:58:11.447Z,25.63
2018-10-16T04:00:39.195Z,24.00
2018-10-16T04:03:06.754Z,25.20
2018-10-16T04:05:34.214Z,24.57
2018-10-16T04:08:01.828Z,24.53
2018-10-16T04:10:29.419Z,24.57
2018-10-16T04:12:57.052Z,25.30
2018-10-16T04:15:24.575Z,21.90
2018-10-16T04:17:52.091Z,22.00
2018-10-16T04:20:19.619Z,24.67
2018-10-16T04:22:47.071Z,22.47
2018-10-16T04:25:14.531Z,22.77
2018-10-16T04:27:42.010Z,25.90
2018-10-16T04:30:09.748Z,24.63
2018-10-16T04:32:37.308Z,24.90
2018-10-16T04:35:12.000Z,23.00
2018-10-16T04:37:39.503Z,22.37
2018-10-16T04:40:07.091Z,27.00
2018-10-16T04:42:34.626Z,21.40
2018-10-16T04:45:02.115Z,25.10
2018-10-16T04:47:29.654Z,26.30
2018-10-16T04:49:57.191Z,25.50
2018-10-16T04:52:25.798Z,25.27
2018-10-16T04:54:53.332Z,23.73
2018-10-16T04:57:20.803Z,24.00
2018-10-16T04:59:48.384Z,26.90
2018-10-16T05:02:16.092Z,23.37
2018-10-16T05:04:43.797Z,25.93
2018-10-16T05:07:11.539Z,26.00
2018-10-16T05:09:39.154Z,26.40
2018-10-16T05:12:06.893Z,25.83
2018-10-16T05:14:34.843Z,26.77
2018-10-16T05:17:02.594Z,25.20
2018-10-16T05:19:30.105Z,24.87
2018-10-16T05:21:57.652Z,27.00
2018-10-16T05:24:26.057Z,25.53
2018-10-16T05:26:53.689Z,24.20
2018-10-16T05:29:21.198Z,24.80
2018-10-16T05:31:48.675Z,26.27
2018-10-16T05:34:16.563Z,26.83
2018-10-16T05:36:44.151Z,24.70
2018-10-16T05:39:12.191Z,25.40
2018-10-16T05:41:40.011Z,28.10
2018-10-16T05:44:08.009Z,26.80
2018-10-16T05:46:35.531Z,26.10
2018-10-16T05:49:03.223Z,26.80
2018-10-16T05:51:30.737Z,26.37
2018-10-16T05:53:58.269Z,27.63
2018-10-16T05:56:26.322Z,28.37
2018-10-16T05:58:53.763Z,29.90
2018-10-16T06:01:21.386Z,30.30
2018-10-16T06:03:48.878Z,31.50
2018-10-16T06:06:16.304Z,31.87
2018-10-16T06:08:43.780Z,29.87
2018-10-16T06:11:11.227Z,31.23
2018-10-16T06:13:38.668Z,33.07
2018-10-16T06:16:06.218Z,35.40
2018-10-16T06:18:33.628Z,34.43
2018-10-16T06:21:01.195Z,34.83
2018-10-16T06:23:28.710Z,35.00
2018-10-16T06:25:56.282Z,34.30
2018-10-16T06:28:25.491Z,32.43
2018-10-16T06:30:52.987Z,32.83
2018-10-16T06:33:23.247Z,34.60
2018-10-16T06:35:50.697Z,29.50
2018-10-16T06:38:18.112Z,23.73
2018-10-16T06:40:45.610Z,34.77
2018-10-16T06:43:13.243Z,30.83
2018-10-16T06:45:40.692Z,31.27
2018-10-16T06:48:08.703Z,22.20
2018-10-16T06:50:35.987Z,28.27
2018-10-16T06:53:03.727Z,30.97
2018-10-16T06:55:31.259Z,34.40
2018-10-16T06:57:58.781Z,26.67
2018-10-16T07:00:26.654Z,31.40
2018-10-16T07:02:54.686Z,25.37
2018-10-16T07:05:22.157Z,36.10
2018-10-16T07:07:49.675Z,35.03
2018-10-16T07:10:17.200Z,31.57
2018-10-16T07:12:44.678Z,36.53
2018-10-16T07:15:12.183Z,33.60
2018-10-16T07:17:39.324Z,38.50
2018-10-16T07:20:07.511Z,32.90
2018-10-16T07:22:34.979Z,36.23
2018-10-16T07:25:02.551Z,38.53
2018-10-16T07:27:30.002Z,41.60
2018-10-16T07:29:57.484Z,38.87
2018-10-16T07:32:25.455Z,39.30
2018-10-16T07:34:52.872Z,36.13
2018-10-16T07:37:20.320Z,39.43
2018-10-16T07:39:47.764Z,39.93
2018-10-16T07:42:15.242Z,39.37
2018-10-16T07:44:42.670Z,39.00
2018-10-16T07:47:10.154Z,39.40
2018-10-16T07:49:37.945Z,32.80
2018-10-16T07:52:05.609Z,38.10
2018-10-16T07:54:33.241Z,40.60
2018-10-16T07:57:00.914Z,41.17
2018-10-16T07:59:28.308Z,38.77
2018-10-16T08:01:55.929Z,36.40
2018-10-16T08:04:23.364Z,40.63
2018-10-16T08:06:50.780Z,22.83
2018-10-16T08:09:18.242Z,32.30
2018-10-16T08:11:46.773Z,41.00
2018-10-16T08:14:15.440Z,40.07
2018-10-16T08:16:43.715Z,39.13
2018-10-16T08:19:11.174Z,39.40
2018-10-16T08:21:38.644Z,37.57
2018-10-16T08:24:06.467Z,39.73
2018-10-16T08:26:33.955Z,42.90
2018-10-16T08:29:01.535Z,38.30
2018-10-16T08:31:30.139Z,39.40
2018-10-16T08:33:57.746Z,40.03
2018-10-16T08:36:25.830Z,41.90
2018-10-16T08:39:04.084Z,42.60
2018-10-16T08:41:39.445Z,39.80
2018-10-16T08:44:15.954Z,43.00
2018-10-16T08:46:55.408Z,40.67
2018-10-16T08:49:34.209Z,39.23
2018-10-16T08:52:01.722Z,39.60
2018-10-16T08:54:29.447Z,35.10
2018-10-16T08:56:57.030Z,39.60
2018-10-16T08:59:24.564Z,33.50
2018-10-16T09:01:52.225Z,39.50
2018-10-16T09:04:19.707Z,37.07
2018-10-16T09:06:47.249Z,39.97
2018-10-16T09:09:16.068Z,42.67
2018-10-16T09:11:44.707Z,32.33
2018-10-16T09:14:12.750Z,41.20
2018-10-16T09:16:40.249Z,40.17
2018-10-16T09:19:07.722Z,39.37
2018-10-16T09:21:35.396Z,41.73
2018-10-16T09:24:03.062Z,41.57
2018-10-16T09:26:30.519Z,41.87
2018-10-16T09:28:58.040Z,37.80
2018-10-16T09:31:25.649Z,41.23
2018-10-16T09:34:09.836Z,39.90
2018-10-16T09:36:37.227Z,36.53
2018-10-16T09:39:07.787Z,34.93
2018-10-16T09:41:35.255Z,42.83
2018-10-16T09:44:02.834Z,43.97
2018-10-16T09:46:30.336Z,29.70
2018-10-16T09:48:57.900Z,42.47
2018-10-16T09:51:25.389Z,42.23
2018-10-16T09:53:52.969Z,39.77
2018-10-16T09:56:20.413Z,39.77
2018-10-16T09:58:47.944Z,36.40
2018-10-16T10:01:21.200Z,38.07
2018-10-16T10:03:48.722Z,42.60
2018-10-16T10:06:17.260Z,40.13
2018-10-16T10:08:44.720Z,40.03
2018-10-16T10:11:12.302Z,41.47
2018-10-16T10:13:39.795Z,38.90
2018-10-16T10:16:07.584Z,35.10
2018-10-16T10:18:35.128Z,40.10
2018-10-16T10:21:03.143Z,41.20
2018-10-16T10:23:30.650Z,40.03
2018-10-16T10:25:58.098Z,32.57
2018-10-16T10:28:26.588Z,33.27
2018-10-16T10:30:54.111Z,38.27
2018-10-16T10:33:21.707Z,36.63
2018-10-16T10:35:49.337Z,37.93
2018-10-16T10:38:16.827Z,35.77
2018-10-16T10:40:44.258Z,29.60
2018-10-16T10:43:12.020Z,31.67
2018-10-16T10:45:39.609Z,29.30
2018-10-16T10:48:07.045Z,32.50
2018-10-16T10:50:34.854Z,30.60
2018-10-16T10:53:02.584Z,32.20
2018-10-16T10:55:30.054Z,32.13
2018-10-16T10:57:57.656Z,31.50
2018-10-16T11:00:25.131Z,32.53
2018-10-16T11:02:52.742Z,31.70
2018-10-16T11:05:20.315Z,29.23
2018-10-16T11:07:47.755Z,30.63
2018-10-16T11:10:15.219Z,28.37
2018-10-16T11:12:43.697Z,29.17
2018-10-16T11:15:11.217Z,28.57
2018-10-16T11:17:39.130Z,29.43
2018-10-16T11:20:08.106Z,29.67
2018-10-16T11:22:35.638Z,31.03
2018-10-16T11:25:04.036Z,30.07
2018-10-16T11:27:31.531Z,30.00
2018-10-16T11:29:59.132Z,29.90
2018-10-16T11:32:28.830Z,30.80
2018-10-16T11:34:56.293Z,29.20
2018-10-16T11:37:23.783Z,30.20
2018-10-16T11:39:51.544Z,26.93
2018-10-16T11:42:19.825Z,28.40
2018-10-16T11:44:47.263Z,29.57
2018-10-16T11:47:14.701Z,26.57
2018-10-16T11:49:42.124Z,23.63
2018-10-16T11:52:09.661Z,27.87
2018-10-16T11:54:37.260Z,27.37
2018-10-16T11:57:04.963Z,27.30
2018-10-16T11:59:32.481Z,26.40
2018-10-16T12:02:00.046Z,24.70
2018-10-16T12:04:28.053Z,26.00
2018-10-16T12:06:55.744Z,23.30
2018-10-16T12:09:23.171Z,24.67
2018-10-16T12:11:51.182Z,23.40
2018-10-16T12:14:19.355Z,22.70
2018-10-16T12:16:56.947Z,23.43
2018-10-16T12:19:31.603Z,23.60
2018-10-16T12:21:59.125Z,22.43
2018-10-16T12:24:27.459Z,17.67
2018-10-16T12:26:55.032Z,17.50
2018-10-16T12:29:22.519Z,15.30
2018-10-16T12:31:49.974Z,15.60
2018-10-16T12:34:17.563Z,14.10
2018-10-16T12:36:45.118Z,16.10
2018-10-16T12:39:12.596Z,16.70
2018-10-16T12:41:40.172Z,15.67
2018-10-16T12:44:07.759Z,15.50
2018-10-16T12:46:35.323Z,16.17
2018-10-16T12:49:03.008Z,16.63
2018-10-16T12:51:30.488Z,14.70
2018-10-16T12:53:58.042Z,16.13
2018-10-16T12:56:25.553Z,17.30
2018-10-16T12:58:53.234Z,15.97
2018-10-16T13:01:20.742Z,17.40
2018-10-16T13:03:48.163Z,15.37
2018-10-16T13:06:15.859Z,17.20
2018-10-16T13:08:43.511Z,15.73
2018-10-16T13:11:11.033Z,18.70
2018-10-16T13:13:38.460Z,20.20
2018-10-16T13:16:06.176Z,19.90
2018-10-16T13:18:33.756Z,19.33
2018-10-16T13:21:01.267Z,19.03
2018-10-16T13:23:28.745Z,18.73
2018-10-16T13:25:56.263Z,20.00
2018-10-16T13:28:23.703Z,17.97
2018-10-16T13:30:51.304Z,21.57
2018-10-16T13:33:19.096Z,19.70
2018-10-16T13:35:46.614Z,18.80
2018-10-16T13:38:14.514Z,21.40
2018-10-16T13:40:42.007Z,22.27
2018-10-16T13:43:09.507Z,21.10
2018-10-16T13:45:36.976Z,20.27
2018-10-16T13:48:05.223Z,21.07
2018-10-16T13:50:32.709Z,18.50
2018-10-16T13:53:00.300Z,20.60
2018-10-16T13:55:27.923Z,20.97
2018-10-16T13:57:55.399Z,21.60
2018-10-16T14:00:22.855Z,23.67
2018-10-16T14:02:51.707Z,24.50
2018-10-16T14:05:19.211Z,23.57
2018-10-16T14:07:46.759Z,23.20
2018-10-16T14:10:15.573Z,23.87
2018-10-16T14:12:44.412Z,21.67
2018-10-16T14:15:12.592Z,21.80
2018-10-16T14:17:40.339Z,20.50
2018-10-16T14:20:08.960Z,19.37
2018-10-16T14:22:37.400Z,24.33
2018-10-16T14:25:06.074Z,18.67
2018-10-16T14:27:33.661Z,19.63
2018-10-16T14:30:01.615Z,23.70
2018-10-16T14:32:29.844Z,25.10
2018-10-16T14:34:57.360Z,22.33
2018-10-16T14:37:24.863Z,19.03
2018-10-16T14:39:52.384Z,22.73
2018-10-16T14:42:19.941Z,22.40
2018-10-16T14:44:47.583Z,22.80
2018-10-16T14:47:15.126Z,22.40
2018-10-16T14:49:42.611Z,23.90
2018-10-16T14:52:10.168Z,22.23
2018-10-16T14:54:37.708Z,22.67
2018-10-16T14:57:05.669Z,21.17
2018-10-16T14:59:33.547Z,21.93
2018-10-16T15:02:01.488Z,22.97
2018-10-16T15:04:29.367Z,22.70
2018-10-16T15:06:56.883Z,19.43
2018-10-16T15:09:24.871Z,19.93
2018-10-16T15:11:52.421Z,20.03
2018-10-16T15:14:19.857Z,19.63
2018-10-16T15:16:47.376Z,17.90
2018-10-16T15:19:14.896Z,18.10
2018-10-16T15:21:42.433Z,17.90
2018-10-16T15:24:10.264Z,19.30
2018-10-16T15:26:37.771Z,16.03
2018-10-16T15:29:05.335Z,17.30
2018-10-16T15:31:33.195Z,16.90
2018-10-16T15:34:00.799Z,17.50
2018-10-16T15:36:28.962Z,18.00
2018-10-16T15:38:56.367Z,15.57
2018-10-16T15:41:24.181Z,16.00
2018-10-16T15:43:51.660Z,15.90
2018-10-16T15:46:19.075Z,17.17
2018-10-16T15:48:46.683Z,14.10
2018-10-16T15:51:14.745Z,14.97
2018-10-16T15:53:42.732Z,15.17
2018-10-16T15:56:10.301Z,14.43
2018-10-16T15:58:37.699Z,15.80
2018-10-16T16:01:05.309Z,14.60
2018-10-16T16:03:33.047Z,15.33
2018-10-16T16:06:00.647Z,14.67
2018-10-16T16:08:28.729Z,15.30
2018-10-16T16:10:56.419Z,16.67
2018-10-16T16:13:24.060Z,15.03
2018-10-16T16:15:51.551Z,14.23
2018-10-16T16:18:19.213Z,14.33
2018-10-16T16:20:46.591Z,15.10
2018-10-16T16:23:14.298Z,14.30
2018-10-16T16:25:41.779Z,14.40
2018-10-16T16:28:09.341Z,16.30
2018-10-16T16:30:36.863Z,13.53
2018-10-16T16:33:04.764Z,14.50
2018-10-16T16:35:32.233Z,15.23
2018-10-16T16:37:59.863Z,14.83
2018-10-16T16:40:27.829Z,14.40
2018-10-16T16:42:56.251Z,16.20
2018-10-16T16:45:23.789Z,15.20
2018-10-16T16:47:51.452Z,15.40
2018-10-16T16:50:19.105Z,15.23
2018-10-16T16:52:46.699Z,15.70
2018-10-16T16:55:15.209Z,14.73
2018-10-16T16:57:43.143Z,15.10
2018-10-16T17:00:12.371Z,15.17
2018-10-16T17:02:40.871Z,15.07
2018-10-16T17:05:09.195Z,15.27
2018-10-16T17:07:36.686Z,14.70
2018-10-16T17:10:04.557Z,16.20
2018-10-16T17:12:32.078Z,16.30
2018-10-16T17:14:59.645Z,16.77
2018-10-16T17:17:27.067Z,17.80
2018-10-16T17:19:54.742Z,17.83
2018-10-16T17:22:22.253Z,16.77
2018-10-16T17:24:49.815Z,17.50
2018-10-16T17:27:17.376Z,17.20
2018-10-16T17:29:44.935Z,18.10
2018-10-16T17:32:12.986Z,17.43
2018-10-16T17:34:40.606Z,16.20
2018-10-16T17:37:08.764Z,16.93
2018-10-16T17:39:36.288Z,17.50
2018-10-16T17:42:04.017Z,19.90
2018-10-16T17:44:31.743Z,18.07
2018-10-16T17:46:59.300Z,16.43
2018-10-16T17:49:27.175Z,18.10
2018-10-16T17:51:54.734Z,16.90
2018-10-16T17:54:22.395Z,17.10
2018-10-16T17:56:49.915Z,17.27
2018-10-16T17:59:17.425Z,17.87
2018-10-16T18:01:44.914Z,18.53
2018-10-16T18:04:14.356Z,19.87
2018-10-16T18:06:41.943Z,18.50
2018-10-16T18:09:09.628Z,18.97
2018-10-16T18:11:37.597Z,18.00
2018-10-16T18:14:05.898Z,19.50
2018-10-16T18:16:33.731Z,21.47
2018-10-16T18:19:01.352Z,24.57
2018-10-16T18:21:29.079Z,23.00
2018-10-16T18:23:56.781Z,20.00
2018-10-16T18:26:24.200Z,21.80
2018-10-16T18:28:51.906Z,21.43
2018-10-16T18:31:19.404Z,21.57
2018-10-16T18:33:46.953Z,21.90
2018-10-16T18:36:14.500Z,20.87
2018-10-16T18:38:41.995Z,21.70
2018-10-16T18:41:09.455Z,21.93
2018-10-16T18:43:37.057Z,21.90
2018-10-16T18:46:04.917Z,21.53
2018-10-16T18:48:32.525Z,21.90
2018-10-16T18:51:00.457Z,20.60
2018-10-16T18:53:28.722Z,22.00
2018-10-16T18:55:56.217Z,22.20
2018-10-16T18:58:23.692Z,22.23
2018-10-16T19:00:51.247Z,19.90
2018-10-16T19:03:18.974Z,20.70
2018-10-16T19:05:46.507Z,21.50
2018-10-16T19:08:14.498Z,21.07
2018-10-16T19:10:42.269Z,21.13
2018-10-16T19:13:09.998Z,20.77
2018-10-16T19:15:37.523Z,22.60
2018-10-16T19:18:05.214Z,19.90
2018-10-16T19:20:32.665Z,20.90
2018-10-16T19:23:00.228Z,22.20
2018-10-16T19:25:27.720Z,24.13
2018-10-16T19:27:55.282Z,21.70
2018-10-16T19:30:23.226Z,23.03
2018-10-16T19:32:50.728Z,23.00
2018-10-16T19:35:18.744Z,24.27
2018-10-16T19:37:46.370Z,25.00
2018-10-16T19:40:14.087Z,22.40
2018-10-16T19:42:41.815Z,23.93
2018-10-16T19:45:09.937Z,22.80
2018-10-16T19:47:37.514Z,23.37
2018-10-16T19:50:05.603Z,24.77
2018-10-16T19:52:33.844Z,24.77
2018-10-16T19:55:01.903Z,22.97
2018-10-16T19:57:29.713Z,27.43
2018-10-16T19:59:57.712Z,25.30
2018-10-16T20:02:26.724Z,26.87
2018-10-16T20:04:55.710Z,25.17
2018-10-16T20:07:27.480Z,26.00
2018-10-16T20:09:58.976Z,26.07
2018-10-16T20:12:29.116Z,24.43
2018-10-16T20:14:59.947Z,27.53
2018-10-16T20:17:31.682Z,27.47
2018-10-16T20:19:59.453Z,26.60
2018-10-16T20:22:27.193Z,26.10
2018-10-16T20:24:54.965Z,25.03
2018-10-16T20:27:22.647Z,24.57
2018-10-16T20:29:50.352Z,24.00
2018-10-16T20:32:17.992Z,25.97
2018-10-16T20:34:45.497Z,27.03
2018-10-16T20:37:13.163Z,27.30
2018-10-16T20:39:40.778Z,26.10
2018-10-16T20:42:08.618Z,26.13
2018-10-16T20:44:35.948Z,26.63
2018-10-16T20:48:07.388Z,28.20
2018-10-16T20:50:34.966Z,27.47
2018-10-16T20:53:03.327Z,26.17
2018-10-16T20:55:30.833Z,25.63
2018-10-16T20:57:58.351Z,25.40
2018-10-16T21:00:26.216Z,28.77
2018-10-16T21:02:53.791Z,25.67
2018-10-16T21:05:21.562Z,28.40
2018-10-16T21:07:49.210Z,29.60
2018-10-16T21:10:16.640Z,27.50
2018-10-16T21:12:44.133Z,27.87
2018-10-16T21:15:11.631Z,26.03
2018-10-16T21:17:39.176Z,27.07
2018-10-16T21:20:07.625Z,28.07
2018-10-16T21:22:35.201Z,30.67
2018-10-16T21:25:02.869Z,26.77
2018-10-16T21:27:30.419Z,29.33
2018-10-16T21:29:57.876Z,27.70
2018-10-16T21:32:25.387Z,29.90
2018-10-16T21:34:52.816Z,28.93
2018-10-16T21:37:20.562Z,27.57
2018-10-16T21:39:48.093Z,27.20
2018-10-16T21:42:15.811Z,28.10
2018-10-16T21:44:43.232Z,27.40
2018-10-16T21:49:45.009Z,28.57
2018-10-16T21:52:12.424Z,27.83
2018-10-16T21:54:39.926Z,29.00
2018-10-16T21:57:07.513Z,30.27
2018-10-16T21:59:35.123Z,28.10
2018-10-16T22:02:08.282Z,27.37
2018-10-16T22:04:36.646Z,28.40
2018-10-16T22:07:04.569Z,26.43
2018-10-16T22:09:31.943Z,30.57
2018-10-16T22:11:59.469Z,28.50
2018-10-16T22:14:27.069Z,27.60
2018-10-16T22:16:54.699Z,29.20
2018-10-16T22:19:22.194Z,30.20
2018-10-16T22:21:49.636Z,29.17
2018-10-16T22:24:17.094Z,30.00
2018-10-16T22:26:44.548Z,28.03
2018-10-16T22:29:12.176Z,29.17
2018-10-16T22:31:39.682Z,28.37
2018-10-16T22:34:07.139Z,27.87
2018-10-16T22:36:34.666Z,30.77
2018-10-16T22:39:02.255Z,29.10
2018-10-16T22:41:29.804Z,28.57
2018-10-16T22:43:57.483Z,28.40
2018-10-16T22:46:25.944Z,27.90
2018-10-16T22:48:53.436Z,30.13
2018-10-16T22:51:20.854Z,28.93
2018-10-16T22:53:48.323Z,28.10
2018-10-16T22:56:15.875Z,29.00
2018-10-16T22:58:43.428Z,27.43
2018-10-16T23:01:10.921Z,30.47
2018-10-16T23:03:38.492Z,28.67
2018-10-16T23:06:05.934Z,31.43
2018-10-16T23:08:33.506Z,31.03
2018-10-16T23:11:01.279Z,28.50
2018-10-16T23:13:28.690Z,29.60
2018-10-16T23:15:56.135Z,32.40
2018-10-16T23:18:23.708Z,30.80
2018-10-16T23:20:51.645Z,28.27
2018-10-16T23:23:19.126Z,29.67
2018-10-16T23:25:46.672Z,28.13
2018-10-16T23:28:14.239Z,30.30
2018-10-16T23:30:51.258Z,29.23
2018-10-16T23:33:18.940Z,28.43
2018-10-16T23:35:47.794Z,32.73
2018-10-16T23:38:15.309Z,31.60
2018-10-16T23:40:43.012Z,30.10
2018-10-16T23:43:10.563Z,30.30
2018-10-16T23:45:38.021Z,29.73
2018-10-16T23:48:06.002Z,31.27
2018-10-16T23:50:33.512Z,30.17
2018-10-16T23:53:01.035Z,29.00
2018-10-16T23:55:28.479Z,29.23
2018-10-16T23:57:56.145Z,29.67
